sensor_id;sensor_type;location;lat;lon;timestamp;P1;durP1;ratioP1;P2;durP2;ratioP2
15708;SDS011;7954;51.914;8.420;2023-09-18T00:00:50;5.20;;;4.00;;
15708;SDS011;7954;51.914;8.420;2023-09-18T00:03:19;3.63;;;3.33;;
15708;SDS011;7954;51.914;8.420;2023-09-18T00:05:51;3.80;;;3.50;;
15708;SDS011;7954;51.914;8.420;2023-09-18T00:08:19;4.03;;;3.63;;
15708;SDS011;7954;51.914;8.420;2023-09-18T00:10:48;4.27;;;3.80;;
15708;SDS011;7954;51.914;8.420;2023-09-18T00:13:18;4.20;;;3.50;;
15708;SDS011;7954;51.914;8.420;2023-09-18T00:15:48;4.13;;;3.77;;
15708;SDS011;7954;51.914;8.420;2023-09-18T00:18:19;3.83;;;3.40;;
15708;SDS011;7954;51.914;8.420;2023-09-18T00:20:48;4.20;;;3.83;;
15708;SDS011;7954;51.914;8.420;2023-09-18T00:23:18;4.30;;;4.00;;
15708;SDS011;7954;51.914;8.420;2023-09-18T00:25:46;4.07;;;3.67;;
15708;SDS011;7954;51.914;8.420;2023-09-18T00:28:14;4.17;;;3.77;;
15708;SDS011;7954;51.914;8.420;2023-09-18T00:30:47;4.03;;;3.50;;
15708;SDS011;7954;51.914;8.420;2023-09-18T00:33:17;4.70;;;3.40;;
15708;SDS011;7954;51.914;8.420;2023-09-18T00:35:46;4.33;;;3.70;;
15708;SDS011;7954;51.914;8.420;2023-09-18T00:38:16;4.47;;;3.50;;
15708;SDS011;7954;51.914;8.420;2023-09-18T00:40:45;4.43;;;3.80;;
15708;SDS011;7954;51.914;8.420;2023-09-18T00:43:13;3.90;;;3.60;;
15708;SDS011;7954;51.914;8.420;2023-09-18T00:45:42;5.10;;;3.90;;
15708;SDS011;7954;51.914;8.420;2023-09-18T00:48:13;3.90;;;3.50;;
15708;SDS011;7954;51.914;8.420;2023-09-18T00:50:43;4.73;;;3.53;;
15708;SDS011;7954;51.914;8.420;2023-09-18T00:53:12;3.93;;;3.53;;
15708;SDS011;7954;51.914;8.420;2023-09-18T00:55:44;4.63;;;3.47;;
15708;SDS011;7954;51.914;8.420;2023-09-18T00:58:12;3.77;;;3.47;;
15708;SDS011;7954;51.914;8.420;2023-09-18T01:00:41;4.10;;;3.70;;
15708;SDS011;7954;51.914;8.420;2023-09-18T01:03:10;4.23;;;3.60;;
15708;SDS011;7954;51.914;8.420;2023-09-18T01:05:44;4.43;;;3.90;;
15708;SDS011;7954;51.914;8.420;2023-09-18T01:08:13;4.13;;;3.77;;
15708;SDS011;7954;51.914;8.420;2023-09-18T01:10:43;4.67;;;3.63;;
15708;SDS011;7954;51.914;8.420;2023-09-18T01:13:18;3.57;;;3.27;;
15708;SDS011;7954;51.914;8.420;2023-09-18T01:15:52;4.00;;;3.60;;
15708;SDS011;7954;51.914;8.420;2023-09-18T01:18:25;4.33;;;3.70;;
15708;SDS011;7954;51.914;8.420;2023-09-18T01:20:53;4.13;;;3.10;;
15708;SDS011;7954;51.914;8.420;2023-09-18T01:23:23;5.50;;;3.60;;
15708;SDS011;7954;51.914;8.420;2023-09-18T01:25:52;3.90;;;3.60;;
15708;SDS011;7954;51.914;8.420;2023-09-18T01:28:19;4.80;;;4.13;;
15708;SDS011;7954;51.914;8.420;2023-09-18T01:30:48;3.87;;;3.57;;
15708;SDS011;7954;51.914;8.420;2023-09-18T01:33:17;4.97;;;3.67;;
15708;SDS011;7954;51.914;8.420;2023-09-18T01:35:46;5.03;;;3.37;;
15708;SDS011;7954;51.914;8.420;2023-09-18T01:38:15;4.37;;;3.67;;
15708;SDS011;7954;51.914;8.420;2023-09-18T01:40:45;4.47;;;3.40;;
15708;SDS011;7954;51.914;8.420;2023-09-18T01:43:13;3.93;;;3.50;;
15708;SDS011;7954;51.914;8.420;2023-09-18T01:45:41;4.97;;;4.13;;
15708;SDS011;7954;51.914;8.420;2023-09-18T01:48:10;5.10;;;3.80;;
15708;SDS011;7954;51.914;8.420;2023-09-18T01:50:38;4.47;;;3.60;;
15708;SDS011;7954;51.914;8.420;2023-09-18T01:53:07;3.90;;;3.60;;
15708;SDS011;7954;51.914;8.420;2023-09-18T01:55:36;5.23;;;3.60;;
15708;SDS011;7954;51.914;8.420;2023-09-18T01:58:06;3.90;;;3.20;;
15708;SDS011;7954;51.914;8.420;2023-09-18T02:00:36;4.13;;;3.73;;
15708;SDS011;7954;51.914;8.420;2023-09-18T02:03:04;3.93;;;3.53;;
15708;SDS011;7954;51.914;8.420;2023-09-18T02:05:52;5.43;;;3.53;;
15708;SDS011;7954;51.914;8.420;2023-09-18T02:08:21;4.00;;;3.57;;
15708;SDS011;7954;51.914;8.420;2023-09-18T02:10:49;4.87;;;3.43;;
15708;SDS011;7954;51.914;8.420;2023-09-18T02:13:18;4.53;;;3.60;;
15708;SDS011;7954;51.914;8.420;2023-09-18T02:15:46;4.17;;;3.73;;
15708;SDS011;7954;51.914;8.420;2023-09-18T02:18:14;6.73;;;3.57;;
15708;SDS011;7954;51.914;8.420;2023-09-18T02:20:44;4.53;;;3.70;;
15708;SDS011;7954;51.914;8.420;2023-09-18T02:23:14;4.63;;;3.87;;
15708;SDS011;7954;51.914;8.420;2023-09-18T02:25:43;4.10;;;3.50;;
15708;SDS011;7954;51.914;8.420;2023-09-18T02:28:11;4.17;;;3.33;;
15708;SDS011;7954;51.914;8.420;2023-09-18T02:30:41;4.73;;;3.43;;
15708;SDS011;7954;51.914;8.420;2023-09-18T02:33:10;4.03;;;3.27;;
15708;SDS011;7954;51.914;8.420;2023-09-18T02:35:40;4.30;;;3.90;;
15708;SDS011;7954;51.914;8.420;2023-09-18T02:38:09;4.03;;;3.63;;
15708;SDS011;7954;51.914;8.420;2023-09-18T02:40:38;3.87;;;3.47;;
15708;SDS011;7954;51.914;8.420;2023-09-18T02:43:05;4.77;;;3.73;;
15708;SDS011;7954;51.914;8.420;2023-09-18T02:45:34;3.50;;;3.17;;
15708;SDS011;7954;51.914;8.420;2023-09-18T02:48:04;4.00;;;3.70;;
15708;SDS011;7954;51.914;8.420;2023-09-18T02:50:32;3.80;;;3.20;;
15708;SDS011;7954;51.914;8.420;2023-09-18T02:53:00;5.07;;;3.80;;
15708;SDS011;7954;51.914;8.420;2023-09-18T02:55:29;4.30;;;3.53;;
15708;SDS011;7954;51.914;8.420;2023-09-18T02:57:57;5.93;;;3.40;;
15708;SDS011;7954;51.914;8.420;2023-09-18T03:00:26;3.77;;;3.37;;
15708;SDS011;7954;51.914;8.420;2023-09-18T03:03:11;5.27;;;3.30;;
15708;SDS011;7954;51.914;8.420;2023-09-18T03:05:40;3.53;;;3.23;;
15708;SDS011;7954;51.914;8.420;2023-09-18T03:08:09;3.47;;;3.13;;
15708;SDS011;7954;51.914;8.420;2023-09-18T03:10:38;4.13;;;3.47;;
15708;SDS011;7954;51.914;8.420;2023-09-18T03:13:08;3.77;;;3.40;;
15708;SDS011;7954;51.914;8.420;2023-09-18T03:15:37;4.90;;;3.50;;
15708;SDS011;7954;51.914;8.420;2023-09-18T03:18:05;5.40;;;3.37;;
15708;SDS011;7954;51.914;8.420;2023-09-18T03:20:36;3.93;;;3.30;;
15708;SDS011;7954;51.914;8.420;2023-09-18T03:23:05;3.77;;;3.43;;
15708;SDS011;7954;51.914;8.420;2023-09-18T03:25:32;4.23;;;3.50;;
15708;SDS011;7954;51.914;8.420;2023-09-18T03:28:16;4.07;;;3.33;;
15708;SDS011;7954;51.914;8.420;2023-09-18T03:30:44;3.80;;;3.50;;
15708;SDS011;7954;51.914;8.420;2023-09-18T03:33:13;3.50;;;3.27;;
15708;SDS011;7954;51.914;8.420;2023-09-18T03:35:46;4.20;;;3.53;;
15708;SDS011;7954;51.914;8.420;2023-09-18T03:38:16;4.47;;;3.43;;
15708;SDS011;7954;51.914;8.420;2023-09-18T03:40:45;3.87;;;3.33;;
15708;SDS011;7954;51.914;8.420;2023-09-18T03:43:13;4.33;;;3.57;;
15708;SDS011;7954;51.914;8.420;2023-09-18T03:45:41;4.83;;;3.70;;
15708;SDS011;7954;51.914;8.420;2023-09-18T03:48:10;4.13;;;3.73;;
15708;SDS011;7954;51.914;8.420;2023-09-18T03:50:38;6.23;;;3.50;;
15708;SDS011;7954;51.914;8.420;2023-09-18T03:53:10;4.93;;;3.60;;
15708;SDS011;7954;51.914;8.420;2023-09-18T03:55:39;3.93;;;3.63;;
15708;SDS011;7954;51.914;8.420;2023-09-18T03:58:07;3.53;;;3.20;;
15708;SDS011;7954;51.914;8.420;2023-09-18T04:00:35;3.87;;;3.50;;
15708;SDS011;7954;51.914;8.420;2023-09-18T04:03:03;4.63;;;3.20;;
15708;SDS011;7954;51.914;8.420;2023-09-18T04:05:32;3.60;;;3.20;;
15708;SDS011;7954;51.914;8.420;2023-09-18T04:08:00;3.53;;;3.23;;
15708;SDS011;7954;51.914;8.420;2023-09-18T04:10:31;4.40;;;3.83;;
15708;SDS011;7954;51.914;8.420;2023-09-18T04:12:59;3.93;;;3.37;;
15708;SDS011;7954;51.914;8.420;2023-09-18T04:15:27;3.70;;;3.27;;
15708;SDS011;7954;51.914;8.420;2023-09-18T04:17:57;3.53;;;3.23;;
15708;SDS011;7954;51.914;8.420;2023-09-18T04:20:26;3.67;;;3.27;;
15708;SDS011;7954;51.914;8.420;2023-09-18T04:25:48;4.10;;;3.10;;
15708;SDS011;7954;51.914;8.420;2023-09-18T04:28:16;3.33;;;3.03;;
15708;SDS011;7954;51.914;8.420;2023-09-18T04:30:45;4.50;;;3.30;;
15708;SDS011;7954;51.914;8.420;2023-09-18T04:33:13;3.77;;;3.30;;
15708;SDS011;7954;51.914;8.420;2023-09-18T04:35:42;4.67;;;3.17;;
15708;SDS011;7954;51.914;8.420;2023-09-18T04:38:11;3.50;;;3.20;;
15708;SDS011;7954;51.914;8.420;2023-09-18T04:40:41;3.73;;;3.43;;
15708;SDS011;7954;51.914;8.420;2023-09-18T04:43:10;4.00;;;3.60;;
15708;SDS011;7954;51.914;8.420;2023-09-18T04:45:38;4.07;;;3.17;;
15708;SDS011;7954;51.914;8.420;2023-09-18T04:48:09;3.63;;;3.30;;
15708;SDS011;7954;51.914;8.420;2023-09-18T04:50:37;3.50;;;3.20;;
15708;SDS011;7954;51.914;8.420;2023-09-18T04:53:05;4.90;;;3.57;;
15708;SDS011;7954;51.914;8.420;2023-09-18T04:55:34;3.50;;;3.20;;
15708;SDS011;7954;51.914;8.420;2023-09-18T04:58:04;3.67;;;3.07;;
15708;SDS011;7954;51.914;8.420;2023-09-18T05:00:35;3.53;;;3.23;;
15708;SDS011;7954;51.914;8.420;2023-09-18T05:03:03;3.60;;;3.17;;
15708;SDS011;7954;51.914;8.420;2023-09-18T05:05:33;5.70;;;3.50;;
15708;SDS011;7954;51.914;8.420;2023-09-18T05:08:01;3.50;;;3.20;;
15708;SDS011;7954;51.914;8.420;2023-09-18T05:10:31;3.67;;;3.20;;
15708;SDS011;7954;51.914;8.420;2023-09-18T05:12:59;4.03;;;3.10;;
15708;SDS011;7954;51.914;8.420;2023-09-18T05:15:29;3.37;;;3.17;;
15708;SDS011;7954;51.914;8.420;2023-09-18T05:17:59;3.50;;;3.20;;
15708;SDS011;7954;51.914;8.420;2023-09-18T05:20:28;4.67;;;3.20;;
15708;SDS011;7954;51.914;8.420;2023-09-18T05:22:58;3.40;;;3.20;;
15708;SDS011;7954;51.914;8.420;2023-09-18T05:25:28;3.40;;;3.10;;
15708;SDS011;7954;51.914;8.420;2023-09-18T05:27:59;4.43;;;3.17;;
15708;SDS011;7954;51.914;8.420;2023-09-18T05:30:31;5.00;;;2.90;;
15708;SDS011;7954;51.914;8.420;2023-09-18T05:33:02;3.17;;;2.87;;
15708;SDS011;7954;51.914;8.420;2023-09-18T05:35:32;3.50;;;3.20;;
15708;SDS011;7954;51.914;8.420;2023-09-18T05:38:00;4.87;;;3.17;;
15708;SDS011;7954;51.914;8.420;2023-09-18T05:40:28;9.77;;;5.60;;
15708;SDS011;7954;51.914;8.420;2023-09-18T05:42:57;5.23;;;3.27;;
15708;SDS011;7954;51.914;8.420;2023-09-18T05:45:25;3.37;;;3.07;;
15708;SDS011;7954;51.914;8.420;2023-09-18T05:47:54;4.50;;;3.13;;
15708;SDS011;7954;51.914;8.420;2023-09-18T05:50:30;5.30;;;3.27;;
15708;SDS011;7954;51.914;8.420;2023-09-18T05:52:59;5.10;;;3.67;;
15708;SDS011;7954;51.914;8.420;2023-09-18T05:55:30;3.97;;;3.57;;
15708;SDS011;7954;51.914;8.420;2023-09-18T05:57:59;3.40;;;3.10;;
15708;SDS011;7954;51.914;8.420;2023-09-18T06:00:29;3.20;;;2.90;;
15708;SDS011;7954;51.914;8.420;2023-09-18T06:02:58;3.43;;;3.00;;
15708;SDS011;7954;51.914;8.420;2023-09-18T06:05:27;4.20;;;3.50;;
15708;SDS011;7954;51.914;8.420;2023-09-18T06:08:01;3.40;;;3.07;;
15708;SDS011;7954;51.914;8.420;2023-09-18T06:10:30;3.70;;;3.40;;
15708;SDS011;7954;51.914;8.420;2023-09-18T06:12:58;3.93;;;3.37;;
15708;SDS011;7954;51.914;8.420;2023-09-18T06:15:31;3.67;;;3.37;;
15708;SDS011;7954;51.914;8.420;2023-09-18T06:17:59;3.80;;;3.50;;
15708;SDS011;7954;51.914;8.420;2023-09-18T06:20:28;4.13;;;3.20;;
15708;SDS011;7954;51.914;8.420;2023-09-18T06:22:56;3.37;;;3.17;;
15708;SDS011;7954;51.914;8.420;2023-09-18T06:25:26;4.87;;;3.23;;
15708;SDS011;7954;51.914;8.420;2023-09-18T06:27:54;3.77;;;3.47;;
15708;SDS011;7954;51.914;8.420;2023-09-18T06:30:22;3.87;;;3.13;;
15708;SDS011;7954;51.914;8.420;2023-09-18T06:32:50;3.87;;;3.40;;
15708;SDS011;7954;51.914;8.420;2023-09-18T06:35:19;3.57;;;3.03;;
15708;SDS011;7954;51.914;8.420;2023-09-18T06:37:48;3.97;;;3.17;;
15708;SDS011;7954;51.914;8.420;2023-09-18T06:40:16;6.17;;;3.63;;
15708;SDS011;7954;51.914;8.420;2023-09-18T06:42:47;3.97;;;3.30;;
15708;SDS011;7954;51.914;8.420;2023-09-18T06:45:15;4.17;;;3.00;;
15708;SDS011;7954;51.914;8.420;2023-09-18T06:47:43;5.63;;;4.07;;
15708;SDS011;7954;51.914;8.420;2023-09-18T06:50:12;4.17;;;3.23;;
15708;SDS011;7954;51.914;8.420;2023-09-18T06:52:40;4.00;;;2.83;;
15708;SDS011;7954;51.914;8.420;2023-09-18T06:55:08;3.70;;;3.23;;
15708;SDS011;7954;51.914;8.420;2023-09-18T06:57:37;5.33;;;3.13;;
15708;SDS011;7954;51.914;8.420;2023-09-18T07:00:10;3.07;;;2.83;;
15708;SDS011;7954;51.914;8.420;2023-09-18T07:02:41;4.70;;;3.10;;
15708;SDS011;7954;51.914;8.420;2023-09-18T07:05:09;3.37;;;2.77;;
15708;SDS011;7954;51.914;8.420;2023-09-18T07:07:38;4.63;;;3.10;;
15708;SDS011;7954;51.914;8.420;2023-09-18T07:10:06;3.43;;;2.83;;
15708;SDS011;7954;51.914;8.420;2023-09-18T07:12:34;5.00;;;3.20;;
15708;SDS011;7954;51.914;8.420;2023-09-18T07:15:02;3.53;;;3.03;;
15708;SDS011;7954;51.914;8.420;2023-09-18T07:17:33;4.37;;;2.60;;
15708;SDS011;7954;51.914;8.420;2023-09-18T07:20:02;4.03;;;2.87;;
15708;SDS011;7954;51.914;8.420;2023-09-18T07:22:44;4.90;;;3.03;;
15708;SDS011;7954;51.914;8.420;2023-09-18T07:25:14;5.07;;;3.10;;
15708;SDS011;7954;51.914;8.420;2023-09-18T07:27:42;6.73;;;3.13;;
15708;SDS011;7954;51.914;8.420;2023-09-18T07:30:11;5.33;;;2.70;;
15708;SDS011;7954;51.914;8.420;2023-09-18T07:32:44;3.73;;;2.60;;
15708;SDS011;7954;51.914;8.420;2023-09-18T07:35:13;6.20;;;2.83;;
15708;SDS011;7954;51.914;8.420;2023-09-18T07:37:41;2.30;;;2.10;;
15708;SDS011;7954;51.914;8.420;2023-09-18T07:40:12;4.17;;;2.50;;
15708;SDS011;7954;51.914;8.420;2023-09-18T07:42:42;5.87;;;2.37;;
15708;SDS011;7954;51.914;8.420;2023-09-18T07:45:11;7.10;;;2.57;;
15708;SDS011;7954;51.914;8.420;2023-09-18T07:47:39;5.27;;;2.57;;
15708;SDS011;7954;51.914;8.420;2023-09-18T07:50:10;4.60;;;2.43;;
15708;SDS011;7954;51.914;8.420;2023-09-18T07:52:38;4.70;;;2.20;;
15708;SDS011;7954;51.914;8.420;2023-09-18T07:55:06;5.27;;;2.10;;
15708;SDS011;7954;51.914;8.420;2023-09-18T07:57:36;7.77;;;2.53;;
15708;SDS011;7954;51.914;8.420;2023-09-18T08:00:05;5.90;;;2.10;;
15708;SDS011;7954;51.914;8.420;2023-09-18T08:02:39;5.03;;;2.63;;
15708;SDS011;7954;51.914;8.420;2023-09-18T08:05:09;5.40;;;2.80;;
15708;SDS011;7954;51.914;8.420;2023-09-18T08:07:37;5.53;;;2.20;;
15708;SDS011;7954;51.914;8.420;2023-09-18T08:10:07;5.17;;;2.20;;
15708;SDS011;7954;51.914;8.420;2023-09-18T08:12:36;3.27;;;2.40;;
15708;SDS011;7954;51.914;8.420;2023-09-18T08:15:04;5.20;;;2.20;;
15708;SDS011;7954;51.914;8.420;2023-09-18T08:17:34;4.43;;;2.03;;
15708;SDS011;7954;51.914;8.420;2023-09-18T08:20:05;3.53;;;1.90;;
15708;SDS011;7954;51.914;8.420;2023-09-18T08:22:40;5.07;;;2.43;;
15708;SDS011;7954;51.914;8.420;2023-09-18T08:25:09;5.17;;;2.70;;
15708;SDS011;7954;51.914;8.420;2023-09-18T08:27:38;5.80;;;2.40;;
15708;SDS011;7954;51.914;8.420;2023-09-18T08:30:09;4.07;;;1.90;;
15708;SDS011;7954;51.914;8.420;2023-09-18T08:32:38;4.10;;;2.30;;
15708;SDS011;7954;51.914;8.420;2023-09-18T08:35:07;4.50;;;2.37;;
15708;SDS011;7954;51.914;8.420;2023-09-18T08:37:36;3.77;;;2.00;;
15708;SDS011;7954;51.914;8.420;2023-09-18T08:40:09;3.53;;;1.87;;
15708;SDS011;7954;51.914;8.420;2023-09-18T08:42:38;5.93;;;2.40;;
15708;SDS011;7954;51.914;8.420;2023-09-18T08:45:09;4.07;;;2.10;;
15708;SDS011;7954;51.914;8.420;2023-09-18T08:47:38;3.27;;;1.97;;
15708;SDS011;7954;51.914;8.420;2023-09-18T08:50:08;5.87;;;2.30;;
15708;SDS011;7954;51.914;8.420;2023-09-18T08:52:37;5.13;;;2.30;;
15708;SDS011;7954;51.914;8.420;2023-09-18T08:55:09;5.97;;;2.17;;
15708;SDS011;7954;51.914;8.420;2023-09-18T08:57:37;5.03;;;2.20;;
15708;SDS011;7954;51.914;8.420;2023-09-18T09:00:07;6.67;;;2.93;;
15708;SDS011;7954;51.914;8.420;2023-09-18T09:02:38;2.83;;;2.00;;
15708;SDS011;7954;51.914;8.420;2023-09-18T09:05:06;5.17;;;2.37;;
15708;SDS011;7954;51.914;8.420;2023-09-18T09:07:34;5.37;;;2.40;;
15708;SDS011;7954;51.914;8.420;2023-09-18T09:10:02;4.83;;;2.23;;
15708;SDS011;7954;51.914;8.420;2023-09-18T09:12:48;3.33;;;1.90;;
15708;SDS011;7954;51.914;8.420;2023-09-18T09:15:20;5.13;;;2.03;;
15708;SDS011;7954;51.914;8.420;2023-09-18T09:17:49;4.27;;;1.87;;
15708;SDS011;7954;51.914;8.420;2023-09-18T09:20:19;3.83;;;2.20;;
15708;SDS011;7954;51.914;8.420;2023-09-18T09:22:47;3.60;;;1.97;;
15708;SDS011;7954;51.914;8.420;2023-09-18T09:25:23;5.27;;;2.10;;
15708;SDS011;7954;51.914;8.420;2023-09-18T09:27:54;4.43;;;1.90;;
15708;SDS011;7954;51.914;8.420;2023-09-18T09:30:22;4.03;;;2.10;;
15708;SDS011;7954;51.914;8.420;2023-09-18T09:32:51;5.03;;;2.20;;
15708;SDS011;7954;51.914;8.420;2023-09-18T09:35:21;3.13;;;2.00;;
15708;SDS011;7954;51.914;8.420;2023-09-18T09:37:50;3.43;;;2.00;;
15708;SDS011;7954;51.914;8.420;2023-09-18T09:40:19;3.47;;;2.50;;
15708;SDS011;7954;51.914;8.420;2023-09-18T09:42:50;4.23;;;2.10;;
15708;SDS011;7954;51.914;8.420;2023-09-18T09:45:22;4.70;;;2.50;;
15708;SDS011;7954;51.914;8.420;2023-09-18T09:47:52;3.57;;;2.17;;
15708;SDS011;7954;51.914;8.420;2023-09-18T09:50:21;4.57;;;2.00;;
15708;SDS011;7954;51.914;8.420;2023-09-18T09:52:52;2.83;;;1.90;;
15708;SDS011;7954;51.914;8.420;2023-09-18T09:55:22;2.83;;;1.80;;
15708;SDS011;7954;51.914;8.420;2023-09-18T09:57:52;5.60;;;2.70;;
15708;SDS011;7954;51.914;8.420;2023-09-18T10:00:25;3.80;;;1.77;;
15708;SDS011;7954;51.914;8.420;2023-09-18T10:02:59;3.60;;;1.83;;
15708;SDS011;7954;51.914;8.420;2023-09-18T10:05:30;7.13;;;2.33;;
15708;SDS011;7954;51.914;8.420;2023-09-18T10:08:00;4.23;;;2.10;;
15708;SDS011;7954;51.914;8.420;2023-09-18T10:10:32;3.47;;;2.00;;
15708;SDS011;7954;51.914;8.420;2023-09-18T10:13:04;3.43;;;1.73;;
15708;SDS011;7954;51.914;8.420;2023-09-18T10:15:38;4.40;;;2.00;;
15708;SDS011;7954;51.914;8.420;2023-09-18T10:18:24;2.33;;;1.97;;
15708;SDS011;7954;51.914;8.420;2023-09-18T10:20:56;4.47;;;2.27;;
15708;SDS011;7954;51.914;8.420;2023-09-18T10:23:38;2.10;;;1.80;;
15708;SDS011;7954;51.914;8.420;2023-09-18T10:26:23;4.97;;;2.00;;
15708;SDS011;7954;51.914;8.420;2023-09-18T10:28:52;2.17;;;1.60;;
15708;SDS011;7954;51.914;8.420;2023-09-18T10:31:27;2.80;;;2.10;;
15708;SDS011;7954;51.914;8.420;2023-09-18T10:33:56;4.57;;;2.20;;
15708;SDS011;7954;51.914;8.420;2023-09-18T10:36:26;2.97;;;1.80;;
15708;SDS011;7954;51.914;8.420;2023-09-18T10:39:00;3.73;;;1.93;;
15708;SDS011;7954;51.914;8.420;2023-09-18T10:41:34;4.30;;;2.00;;
15708;SDS011;7954;51.914;8.420;2023-09-18T10:44:03;3.50;;;2.00;;
15708;SDS011;7954;51.914;8.420;2023-09-18T10:46:33;2.27;;;1.73;;
15708;SDS011;7954;51.914;8.420;2023-09-18T10:49:01;4.57;;;2.10;;
15708;SDS011;7954;51.914;8.420;2023-09-18T10:51:31;1.97;;;1.70;;
15708;SDS011;7954;51.914;8.420;2023-09-18T10:54:00;3.13;;;1.90;;
15708;SDS011;7954;51.914;8.420;2023-09-18T10:56:30;3.17;;;1.90;;
15708;SDS011;7954;51.914;8.420;2023-09-18T10:58:59;3.67;;;1.93;;
15708;SDS011;7954;51.914;8.420;2023-09-18T11:01:29;3.10;;;1.93;;
15708;SDS011;7954;51.914;8.420;2023-09-18T11:03:59;2.07;;;1.83;;
15708;SDS011;7954;51.914;8.420;2023-09-18T11:06:29;2.77;;;1.90;;
15708;SDS011;7954;51.914;8.420;2023-09-18T11:09:01;3.00;;;1.70;;
15708;SDS011;7954;51.914;8.420;2023-09-18T11:11:31;2.40;;;1.70;;
15708;SDS011;7954;51.914;8.420;2023-09-18T11:14:02;5.20;;;1.70;;
15708;SDS011;7954;51.914;8.420;2023-09-18T11:16:34;1.77;;;1.63;;
15708;SDS011;7954;51.914;8.420;2023-09-18T11:19:07;2.47;;;1.70;;
15708;SDS011;7954;51.914;8.420;2023-09-18T11:21:37;2.27;;;1.70;;
15708;SDS011;7954;51.914;8.420;2023-09-18T11:24:06;3.40;;;1.87;;
15708;SDS011;7954;51.914;8.420;2023-09-18T11:26:40;3.00;;;1.40;;
15708;SDS011;7954;51.914;8.420;2023-09-18T11:29:09;3.47;;;1.90;;
15708;SDS011;7954;51.914;8.420;2023-09-18T11:31:42;1.60;;;1.50;;
15708;SDS011;7954;51.914;8.420;2023-09-18T11:34:13;3.07;;;1.53;;
15708;SDS011;7954;51.914;8.420;2023-09-18T11:36:42;3.93;;;1.87;;
15708;SDS011;7954;51.914;8.420;2023-09-18T11:39:10;2.37;;;1.53;;
15708;SDS011;7954;51.914;8.420;2023-09-18T11:41:39;2.73;;;1.70;;
15708;SDS011;7954;51.914;8.420;2023-09-18T11:47:08;3.07;;;1.87;;
15708;SDS011;7954;51.914;8.420;2023-09-18T11:49:50;2.20;;;1.63;;
15708;SDS011;7954;51.914;8.420;2023-09-18T11:52:22;2.23;;;1.40;;
15708;SDS011;7954;51.914;8.420;2023-09-18T11:54:51;3.33;;;2.07;;
15708;SDS011;7954;51.914;8.420;2023-09-18T11:57:21;2.63;;;1.80;;
15708;SDS011;7954;51.914;8.420;2023-09-18T11:59:50;5.40;;;1.80;;
15708;SDS011;7954;51.914;8.420;2023-09-18T12:02:28;1.80;;;1.63;;
15708;SDS011;7954;51.914;8.420;2023-09-18T12:05:09;2.90;;;1.70;;
15708;SDS011;7954;51.914;8.420;2023-09-18T12:07:38;3.67;;;1.70;;
15708;SDS011;7954;51.914;8.420;2023-09-18T12:10:07;2.97;;;1.50;;
15708;SDS011;7954;51.914;8.420;2023-09-18T12:12:37;2.03;;;1.60;;
15708;SDS011;7954;51.914;8.420;2023-09-18T12:15:05;2.83;;;1.50;;
15708;SDS011;7954;51.914;8.420;2023-09-18T12:17:35;2.00;;;1.40;;
15708;SDS011;7954;51.914;8.420;2023-09-18T12:20:03;1.73;;;1.30;;
15708;SDS011;7954;51.914;8.420;2023-09-18T12:22:34;2.17;;;1.53;;
15708;SDS011;7954;51.914;8.420;2023-09-18T12:25:09;1.60;;;1.43;;
15708;SDS011;7954;51.914;8.420;2023-09-18T12:27:41;3.53;;;1.53;;
15708;SDS011;7954;51.914;8.420;2023-09-18T12:30:10;4.50;;;1.50;;
15708;SDS011;7954;51.914;8.420;2023-09-18T12:32:43;2.40;;;1.70;;
15708;SDS011;7954;51.914;8.420;2023-09-18T12:35:13;2.43;;;1.53;;
15708;SDS011;7954;51.914;8.420;2023-09-18T12:37:43;1.80;;;1.50;;
15708;SDS011;7954;51.914;8.420;2023-09-18T12:40:21;1.83;;;1.70;;
15708;SDS011;7954;51.914;8.420;2023-09-18T12:42:50;2.10;;;1.40;;
15708;SDS011;7954;51.914;8.420;2023-09-18T12:45:20;1.50;;;1.40;;
15708;SDS011;7954;51.914;8.420;2023-09-18T12:47:49;1.87;;;1.20;;
15708;SDS011;7954;51.914;8.420;2023-09-18T12:50:18;2.43;;;1.60;;
15708;SDS011;7954;51.914;8.420;2023-09-18T12:52:47;2.67;;;1.48;;
15708;SDS011;7954;51.914;8.420;2023-09-18T12:55:22;2.05;;;1.90;;
15708;SDS011;7954;51.914;8.420;2023-09-18T12:57:52;1.77;;;1.42;;
15708;SDS011;7954;51.914;8.420;2023-09-18T13:00:20;2.45;;;1.63;;
15708;SDS011;7954;51.914;8.420;2023-09-18T13:02:50;3.60;;;1.70;;
15708;SDS011;7954;51.914;8.420;2023-09-18T13:05:22;1.95;;;1.65;;
15708;SDS011;7954;51.914;8.420;2023-09-18T13:07:54;4.88;;;1.63;;
15708;SDS011;7954;51.914;8.420;2023-09-18T13:10:22;3.30;;;1.70;;
15708;SDS011;7954;51.914;8.420;2023-09-18T13:12:54;2.00;;;1.80;;
15708;SDS011;7954;51.914;8.420;2023-09-18T13:15:26;2.58;;;1.60;;
15708;SDS011;7954;51.914;8.420;2023-09-18T13:17:55;2.38;;;1.70;;
15708;SDS011;7954;51.914;8.420;2023-09-18T13:20:24;2.67;;;1.63;;
15708;SDS011;7954;51.914;8.420;2023-09-18T13:22:57;3.60;;;2.13;;
15708;SDS011;7954;51.914;8.420;2023-09-18T13:25:28;1.50;;;1.40;;
15708;SDS011;7954;51.914;8.420;2023-09-18T13:27:58;1.77;;;1.45;;
15708;SDS011;7954;51.914;8.420;2023-09-18T13:30:26;1.65;;;1.42;;
15708;SDS011;7954;51.914;8.420;2023-09-18T13:33:01;1.50;;;1.40;;
15708;SDS011;7954;51.914;8.420;2023-09-18T13:35:30;3.85;;;1.90;;
15708;SDS011;7954;51.914;8.420;2023-09-18T13:37:59;3.63;;;1.77;;
15708;SDS011;7954;51.914;8.420;2023-09-18T13:40:29;2.17;;;1.60;;
15708;SDS011;7954;51.914;8.420;2023-09-18T13:42:58;1.88;;;1.55;;
15708;SDS011;7954;51.914;8.420;2023-09-18T13:45:27;3.53;;;1.52;;
15708;SDS011;7954;51.914;8.420;2023-09-18T13:47:56;1.55;;;1.30;;
15708;SDS011;7954;51.914;8.420;2023-09-18T13:50:25;1.40;;;1.30;;
15708;SDS011;7954;51.914;8.420;2023-09-18T13:52:57;1.42;;;1.27;;
15708;SDS011;7954;51.914;8.420;2023-09-18T13:55:31;3.85;;;1.70;;
15708;SDS011;7954;51.914;8.420;2023-09-18T13:57:59;5.20;;;1.75;;
15708;SDS011;7954;51.914;8.420;2023-09-18T14:00:30;2.10;;;1.42;;
15708;SDS011;7954;51.914;8.420;2023-09-18T14:02:58;2.03;;;1.27;;
15708;SDS011;7954;51.914;8.420;2023-09-18T14:05:26;1.95;;;1.50;;
15708;SDS011;7954;51.914;8.420;2023-09-18T14:07:56;1.83;;;1.50;;
15708;SDS011;7954;51.914;8.420;2023-09-18T14:10:27;2.75;;;1.48;;
15708;SDS011;7954;51.914;8.420;2023-09-18T14:12:56;3.17;;;1.50;;
15708;SDS011;7954;51.914;8.420;2023-09-18T14:15:24;2.13;;;1.45;;
15708;SDS011;7954;51.914;8.420;2023-09-18T14:17:54;1.60;;;1.43;;
15708;SDS011;7954;51.914;8.420;2023-09-18T14:20:22;2.40;;;1.70;;
15708;SDS011;7954;51.914;8.420;2023-09-18T14:22:50;3.93;;;1.70;;
15708;SDS011;7954;51.914;8.420;2023-09-18T14:25:19;3.67;;;1.77;;
15708;SDS011;7954;51.914;8.420;2023-09-18T14:27:48;3.80;;;1.70;;
15708;SDS011;7954;51.914;8.420;2023-09-18T14:30:18;4.43;;;1.70;;
15708;SDS011;7954;51.914;8.420;2023-09-18T14:32:46;52.83;;;5.43;;
15708;SDS011;7954;51.914;8.420;2023-09-18T14:35:16;4.60;;;2.90;;
15708;SDS011;7954;51.914;8.420;2023-09-18T14:37:44;8.30;;;2.53;;
15708;SDS011;7954;51.914;8.420;2023-09-18T14:40:12;4.50;;;3.10;;
15708;SDS011;7954;51.914;8.420;2023-09-18T14:42:41;4.83;;;3.00;;
15708;SDS011;7954;51.914;8.420;2023-09-18T14:45:09;3.33;;;2.77;;
15708;SDS011;7954;51.914;8.420;2023-09-18T14:47:40;2.50;;;2.30;;
15708;SDS011;7954;51.914;8.420;2023-09-18T14:50:09;2.10;;;1.90;;
15708;SDS011;7954;51.914;8.420;2023-09-18T14:52:37;2.00;;;1.80;;
15708;SDS011;7954;51.914;8.420;2023-09-18T14:55:05;2.77;;;2.10;;
15708;SDS011;7954;51.914;8.420;2023-09-18T14:57:33;2.03;;;1.70;;
15708;SDS011;7954;51.914;8.420;2023-09-18T15:00:03;2.23;;;2.00;;
15708;SDS011;7954;51.914;8.420;2023-09-18T15:02:33;2.07;;;1.87;;
15708;SDS011;7954;51.914;8.420;2023-09-18T15:05:03;2.23;;;1.70;;
15708;SDS011;7954;51.914;8.420;2023-09-18T15:07:35;2.47;;;1.93;;
15708;SDS011;7954;51.914;8.420;2023-09-18T15:10:04;4.03;;;2.03;;
15708;SDS011;7954;51.914;8.420;2023-09-18T15:12:33;1.83;;;1.60;;
15708;SDS011;7954;51.914;8.420;2023-09-18T15:15:01;2.20;;;1.77;;
15708;SDS011;7954;51.914;8.420;2023-09-18T15:17:31;2.00;;;1.80;;
15708;SDS011;7954;51.914;8.420;2023-09-18T15:19:59;1.80;;;1.70;;
15708;SDS011;7954;51.914;8.420;2023-09-18T15:22:29;3.40;;;1.80;;